createdAt,value
2023-04-17T00:02:12.179Z,30.80
2023-04-17T00:07:14.823Z,29.00
2023-04-17T00:12:16.971Z,26.20
2023-04-17T00:17:19.108Z,30.70
2023-04-17T00:22:21.217Z,32.50
2023-04-17T00:27:23.925Z,29.30
2023-04-17T00:32:25.858Z,29.60
2023-04-17T00:37:27.879Z,28.80
2023-04-17T00:42:29.687Z,26.80
2023-04-17T00:47:33.195Z,27.60
2023-04-17T00:52:35.078Z,20.70
2023-04-17T00:57:37.436Z,18.80
2023-04-17T01:02:40.215Z,18.50
2023-04-17T01:07:44.021Z,17.30
2023-04-17T01:12:49.419Z,19.00
2023-04-17T01:17:52.412Z,20.60
2023-04-17T01:22:54.200Z,21.20
2023-04-17T01:27:57.317Z,20.60
2023-04-17T01:33:01.131Z,20.10
2023-04-17T01:38:04.190Z,21.10
2023-04-17T01:43:06.155Z,21.60
2023-04-17T01:48:08.288Z,21.40
2023-04-17T01:53:10.381Z,21.10
2023-04-17T01:58:12.320Z,24.20
2023-04-17T02:03:14.677Z,23.80
2023-04-17T02:08:17.335Z,23.00
2023-04-17T02:13:19.213Z,26.10
2023-04-17T02:18:21.285Z,28.10
2023-04-17T02:23:23.222Z,25.30
2023-04-17T02:28:25.638Z,21.40
2023-04-17T02:33:28.200Z,24.10
2023-04-17T02:38:30.678Z,24.30
2023-04-17T02:43:32.886Z,23.80
2023-04-17T02:48:34.818Z,25.60
2023-04-17T02:53:36.650Z,26.10
2023-04-17T02:58:39.756Z,25.30
2023-04-17T03:03:43.205Z,27.40
2023-04-17T03:08:47.932Z,27.80
2023-04-17T03:13:50.723Z,25.20
2023-04-17T03:18:52.787Z,29.70
2023-04-17T03:23:54.689Z,28.50
2023-04-17T03:28:58.128Z,28.80
2023-04-17T03:34:00.659Z,27.80
2023-04-17T03:39:03.158Z,30.70
2023-04-17T03:44:05.832Z,28.90
2023-04-17T03:49:08.227Z,29.60
2023-04-17T03:54:10.404Z,29.30
2023-04-17T03:59:12.515Z,33.20
2023-04-17T04:04:17.547Z,33.30
2023-04-17T04:09:27.484Z,34.40
2023-04-17T04:14:29.832Z,33.50
2023-04-17T04:19:31.952Z,38.30
2023-04-17T04:24:35.349Z,37.80
2023-04-17T04:29:38.821Z,35.10
2023-04-17T04:34:44.794Z,36.30
2023-04-17T04:39:48.021Z,36.80
2023-04-17T04:44:50.698Z,42.10
2023-04-17T04:49:53.947Z,38.40
2023-04-17T04:54:56.364Z,36.30
2023-04-17T04:59:59.599Z,40.40
2023-04-17T05:05:11.160Z,39.40
2023-04-17T05:10:13.822Z,39.60
2023-04-17T05:15:20.421Z,38.90
2023-04-17T05:20:23.468Z,36.90
2023-04-17T05:25:29.107Z,41.10
2023-04-17T05:30:32.268Z,41.30
2023-04-17T05:35:43.828Z,40.90
2023-04-17T05:40:46.268Z,47.30
2023-04-17T05:45:49.091Z,47.80
2023-04-17T05:50:51.402Z,45.40
2023-04-17T05:55:53.198Z,47.80
2023-04-17T06:00:56.891Z,51.30
2023-04-17T06:06:00.250Z,59.20
2023-04-17T06:11:02.390Z,56.50
2023-04-17T06:16:05.767Z,49.80
2023-04-17T06:21:08.244Z,50.00
2023-04-17T06:26:12.355Z,50.60
2023-04-17T06:31:15.862Z,51.20
2023-04-17T06:36:18.094Z,46.70
2023-04-17T06:41:31.052Z,42.80
2023-04-17T06:46:33.033Z,43.10
2023-04-17T06:51:39.040Z,44.40
2023-04-17T06:56:41.097Z,47.90
2023-04-17T07:01:43.107Z,45.40
2023-04-17T07:06:45.231Z,47.80
2023-04-17T07:11:47.259Z,49.10
2023-04-17T07:16:49.272Z,47.60
2023-04-17T07:21:52.034Z,43.80
2023-04-17T07:26:53.995Z,45.40
2023-04-17T07:31:56.543Z,46.80
2023-04-17T07:36:58.581Z,45.10
2023-04-17T07:42:03.037Z,43.50
2023-04-17T07:47:04.964Z,44.10
2023-04-17T07:52:07.107Z,38.60
2023-04-17T07:57:09.029Z,44.50
2023-04-17T08:02:11.260Z,41.80
2023-04-17T08:07:13.194Z,39.00
2023-04-17T08:12:15.207Z,36.90
2023-04-17T08:17:20.346Z,38.20
2023-04-17T08:22:24.244Z,38.70
2023-04-17T08:27:26.209Z,38.20
2023-04-17T08:32:28.610Z,38.60
2023-04-17T08:37:34.253Z,37.00
2023-04-17T08:42:38.146Z,37.00
2023-04-17T08:47:42.283Z,36.70
2023-04-17T08:52:47.661Z,35.50
2023-04-17T08:58:04.102Z,33.40
2023-04-17T09:03:08.527Z,34.90
2023-04-17T09:08:13.377Z,35.00
2023-04-17T09:13:25.056Z,30.00
2023-04-17T09:18:31.154Z,30.90
2023-04-17T09:23:56.165Z,32.80
2023-04-17T09:29:11.375Z,29.10
2023-04-17T09:34:15.455Z,28.50
2023-04-17T09:39:20.941Z,27.80
2023-04-17T09:44:28.455Z,25.50
2023-04-17T09:49:35.130Z,25.50
2023-04-17T09:54:40.010Z,25.70
2023-04-17T09:59:47.911Z,23.00
2023-04-17T10:04:49.854Z,22.20
2023-04-17T10:09:51.999Z,25.10
2023-04-17T10:14:55.106Z,21.70
2023-04-17T10:20:20.296Z,23.40
2023-04-17T10:25:29.759Z,21.00
2023-04-17T10:30:54.902Z,21.90
2023-04-17T10:35:57.821Z,20.60
2023-04-17T10:41:02.700Z,17.90
2023-04-17T10:46:15.222Z,14.10
2023-04-17T10:51:29.299Z,13.40
2023-04-17T10:56:38.685Z,12.90
2023-04-17T11:01:58.343Z,11.70
2023-04-17T11:07:01.053Z,13.60
2023-04-17T11:12:03.255Z,13.10
2023-04-17T11:17:05.609Z,15.00
2023-04-17T11:22:09.688Z,13.60
2023-04-17T11:27:11.800Z,12.80
2023-04-17T11:32:13.740Z,12.40
2023-04-17T11:37:16.221Z,13.00
2023-04-17T11:42:27.802Z,13.60
2023-04-17T11:47:30.067Z,13.10
2023-04-17T11:52:32.288Z,12.80
2023-04-17T11:57:43.653Z,17.30
2023-04-17T12:02:45.677Z,14.20
2023-04-17T12:07:47.916Z,14.20
2023-04-17T12:12:49.840Z,12.80
2023-04-17T12:17:51.962Z,10.30
2023-04-17T12:22:53.810Z,12.70
2023-04-17T12:27:59.163Z,12.70
2023-04-17T12:33:01.787Z,10.50
2023-04-17T12:38:04.194Z,10.30
2023-04-17T12:43:08.715Z,11.50
2023-04-17T12:48:11.511Z,13.30
2023-04-17T12:53:14.605Z,9.70
2023-04-17T12:58:16.881Z,8.60
2023-04-17T13:03:18.887Z,10.60
2023-04-17T13:08:21.521Z,7.40
2023-04-17T13:13:23.559Z,10.80
2023-04-17T13:18:26.491Z,10.50
2023-04-17T13:23:28.440Z,13.90
2023-04-17T13:28:30.519Z,11.90
2023-04-17T13:33:32.438Z,13.00
2023-04-17T13:38:35.074Z,12.30
2023-04-17T13:43:37.101Z,12.50
2023-04-17T13:48:39.368Z,11.20
2023-04-17T13:53:41.199Z,12.40
2023-04-17T13:58:44.540Z,12.00
2023-04-17T14:03:47.417Z,12.10
2023-04-17T14:08:49.845Z,11.10
2023-04-17T14:13:51.820Z,11.40
2023-04-17T14:18:54.099Z,13.90
2023-04-17T14:23:56.991Z,10.10
2023-04-17T14:28:59.017Z,10.20
2023-04-17T14:34:00.799Z,9.70
2023-04-17T14:39:03.374Z,9.30
2023-04-17T14:44:05.376Z,10.70
2023-04-17T14:49:08.661Z,9.50
2023-04-17T14:54:10.518Z,9.30
2023-04-17T14:59:12.729Z,6.80
2023-04-17T15:04:15.130Z,6.30
2023-04-17T15:09:17.335Z,5.80
2023-04-17T15:14:19.974Z,6.30
2023-04-17T15:19:21.992Z,6.30
2023-04-17T15:24:23.779Z,8.00
2023-04-17T15:29:25.841Z,9.00
2023-04-17T15:34:27.669Z,8.20
2023-04-17T15:39:30.416Z,10.40
2023-04-17T15:44:34.090Z,11.90
2023-04-17T15:49:36.074Z,14.90
2023-04-17T15:54:37.936Z,13.80
2023-04-17T15:59:40.115Z,13.70
2023-04-17T16:04:43.873Z,14.20
2023-04-17T16:09:48.048Z,14.30
2023-04-17T16:14:50.778Z,17.30
2023-04-17T16:19:52.947Z,15.80
2023-04-17T16:24:54.764Z,16.20
2023-04-17T16:29:56.837Z,14.80
2023-04-17T16:34:59.168Z,15.30
2023-04-17T16:40:05.328Z,16.50
2023-04-17T16:45:08.314Z,21.60
2023-04-17T16:50:12.556Z,23.80
2023-04-17T16:55:17.148Z,19.70
2023-04-17T17:00:20.206Z,18.20
2023-04-17T17:05:22.223Z,20.60
2023-04-17T17:10:24.238Z,15.20
2023-04-17T17:15:26.569Z,16.40
2023-04-17T17:20:28.735Z,19.80
2023-04-17T17:25:30.733Z,17.60
2023-04-17T17:30:32.837Z,17.90
2023-04-17T17:35:34.770Z,18.70
2023-04-17T17:40:37.452Z,20.20
2023-04-17T17:45:39.518Z,21.20
2023-04-17T17:50:42.943Z,24.20
2023-04-17T17:55:53.173Z,25.20
2023-04-17T18:05:57.263Z,23.10
2023-04-17T18:11:01.616Z,24.30
2023-04-17T18:16:05.019Z,18.80
2023-04-17T18:21:08.304Z,22.10
2023-04-17T18:26:10.281Z,21.20
2023-04-17T18:31:12.585Z,23.80
2023-04-17T18:36:14.394Z,22.90
2023-04-17T18:41:16.736Z,22.00
2023-04-17T18:46:18.784Z,22.80
2023-04-17T18:51:21.818Z,25.30
2023-04-17T18:56:26.787Z,20.80
2023-04-17T19:01:29.153Z,18.00
2023-04-17T19:06:31.719Z,19.20
2023-04-17T19:11:34.119Z,20.50
2023-04-17T19:16:36.265Z,16.10
2023-04-17T19:21:38.480Z,17.30
2023-04-17T19:26:40.796Z,18.90
2023-04-17T19:31:43.452Z,19.60
2023-04-17T19:36:45.422Z,17.60
2023-04-17T19:41:51.061Z,15.80
2023-04-17T19:46:53.302Z,16.70
2023-04-17T19:51:55.356Z,14.70
2023-04-17T19:56:57.212Z,14.60
2023-04-17T20:01:59.678Z,13.00
2023-04-17T20:07:02.230Z,18.50
2023-04-17T20:12:05.807Z,14.60
2023-04-17T20:17:08.715Z,14.50
2023-04-17T20:22:10.964Z,14.90
2023-04-17T20:27:12.792Z,12.10
2023-04-17T20:32:15.296Z,14.10
2023-04-17T20:37:17.193Z,16.30
2023-04-17T20:42:19.591Z,15.20
2023-04-17T20:47:21.561Z,13.80
2023-04-17T20:52:23.916Z,13.90
2023-04-17T20:57:25.967Z,12.20
2023-04-17T21:02:28.165Z,11.50
2023-04-17T21:07:31.020Z,19.90
2023-04-17T21:12:35.324Z,16.70
2023-04-17T21:17:39.446Z,16.40
2023-04-17T21:22:41.842Z,12.20
2023-04-17T21:27:43.834Z,9.90
2023-04-17T21:32:47.611Z,11.00
2023-04-17T21:37:49.704Z,10.10
2023-04-17T21:42:52.945Z,11.00
2023-04-17T21:47:54.908Z,11.80
2023-04-17T21:52:58.531Z,11.60
2023-04-17T21:58:00.632Z,9.30
2023-04-17T22:03:03.341Z,8.30
2023-04-17T22:08:05.299Z,7.80
2023-04-17T22:13:07.363Z,8.70
2023-04-17T22:18:09.349Z,9.40
2023-04-17T22:23:11.265Z,6.90
2023-04-17T22:28:13.144Z,7.50
2023-04-17T22:33:15.526Z,6.70
2023-04-17T22:38:18.988Z,10.80
2023-04-17T22:43:21.040Z,9.00
2023-04-17T22:48:24.691Z,7.70
2023-04-17T22:53:26.937Z,8.30
2023-04-17T22:58:31.985Z,9.40
2023-04-17T23:03:35.066Z,9.20
2023-04-17T23:08:37.556Z,9.30
2023-04-17T23:13:45.780Z,8.10
2023-04-17T23:18:47.998Z,7.40
2023-04-17T23:23:51.670Z,8.20
2023-04-17T23:28:53.623Z,7.30
2023-04-17T23:33:55.891Z,7.00
2023-04-17T23:38:57.746Z,8.40
2023-04-17T23:44:00.593Z,7.60
2023-04-17T23:49:06.709Z,9.80
2023-04-17T23:54:10.452Z,7.10
2023-04-17T23:59:12.288Z,6.80
